Quick Links (Output Below):   Max & Min Temps   /   Climate Reports   /   Zone Forecasts
River Forecasts   /   Forestry Forecasts   /   Aviation Forecasts   /   Radars   /   Features

Terminal Aerodrome Forecast (Jonesboro)

Pick a Site:
Arkadelphia | El Dorado | Fayetteville | Fort Smith | Harrison | Highfill | Hot Springs | Jonesboro
Little Rock | Monticello | Mountain Home | Pine Bluff | Texarkana
 Forecast 

KJBR 281346Z 2814/2912 11005KT P6SM SCT008 BKN016
     FM281700 14005KT P6SM BKN035
     FM290000 13004KT P6SM BKN250=


 Latest METARs (Observations) 
How to Decode METARs
14Z KJBR 281353Z AUTO 10004KT 10SM FEW010 OVC015 21/20 A3015 RMK AO2
         SLP208 T02110200
         
13Z KJBR 281253Z AUTO 14005KT 10SM OVC009 21/19 A3015 RMK AO2 CIG
         007V014 SLP208 T02060194
         
12Z KJBR 281153Z AUTO 16004KT 9SM OVC006 19/19 A3014 RMK AO2 SLP204
         70097 T01940194 10194 20172 53009
         
11Z KJBR 281053Z AUTO 00000KT 6SM BR OVC006 19/19 A3013 RMK AO2 SLP199
         T01940194
         
10Z KJBR 280953Z AUTO 00000KT 9SM OVC007 19/19 A3011 RMK AO2 SLP194
         T01890189
         
09Z KJBR 280853Z AUTO 00000KT 10SM OVC011 18/18 A3011 RMK AO2 CIG
         009V012 SLP194 T01830183 56007
         
08Z KJBR 280753Z AUTO 00000KT 9SM CLR 17/17 A3012 RMK AO2 SLP196
         T01720172
         
07Z KJBR 280653Z AUTO 00000KT 10SM CLR 18/18 A3013 RMK AO2 SLP200
         T01780178
         
06Z KJBR 280553Z AUTO 00000KT 10SM CLR 18/18 A3014 RMK AO2 SLP202
         T01780178 10244 20178 402610167 51009
         
05Z KJBR 280453Z AUTO 18003KT 10SM CLR 20/19 A3013 RMK AO2 SLP200
         T02000194
         
***** Today's Observations (Above) *****


Back to Main Page
http://www.srh.noaa.gov/lzk/qfcst.php

USA.gov is the U.S. government's official web portal to all federal, state and local government web resources and services.